SNR020 YBAS-NFFN
Flight info
| Callsign | SNR020 |
|---|---|
| Flight time | 4h 32m |
| Altitude | 39000 |
| Route | PULOL T11 ROM G326 WOODY Y79 BN B578 AVMUN/N0474F410 B578 TEBUR B602 ATPEN B599 AGUTA |
| Aircraft | B77W/H-SDE1E2E3FGHIJ2J3J4J5M1RWXY/LB1D1 |
Departure
| Time | 2026-05-08 13:42 |
|---|---|
| Airport | Alice Springs Airport (YBAS) |
Arrival
| Time | 2026-05-08 18:15 |
|---|---|
| Airport | Nadi International Airport (NFFN) |
| Time | Latitude | Longitude | Altitude | Speed | Heading |
|---|---|---|---|---|---|
| 2026-05-08 13:24 | -23.80314 | 133.90168 | 1792 ft | 0 kts | 62° |
| 2026-05-08 13:34 | -23.80316 | 133.90164 | 1790 ft | 3 kts | 60° |
| 2026-05-08 13:34 | -23.80328 | 133.90146 | 1789 ft | 4 kts | 26° |
| 2026-05-08 13:35 | -23.80350 | 133.90140 | 1790 ft | 4 kts | 356° |
| 2026-05-08 13:35 | -23.80376 | 133.90144 | 1790 ft | 4 kts | 351° |
| 2026-05-08 13:35 | -23.80381 | 133.90145 | 1791 ft | 0 kts | 352° |
| 2026-05-08 13:37 | -23.80377 | 133.90144 | 1790 ft | 3 kts | 352° |
| 2026-05-08 13:37 | -23.80334 | 133.90118 | 1792 ft | 9 kts | 315° |
| 2026-05-08 13:37 | -23.80300 | 133.90061 | 1793 ft | 9 kts | 301° |
| 2026-05-08 13:38 | -23.80268 | 133.90002 | 1791 ft | 9 kts | 300° |
| 2026-05-08 13:38 | -23.80237 | 133.89943 | 1793 ft | 9 kts | 300° |
| 2026-05-08 13:38 | -23.80206 | 133.89884 | 1791 ft | 9 kts | 300° |
| 2026-05-08 13:38 | -23.80174 | 133.89825 | 1792 ft | 9 kts | 300° |
| 2026-05-08 13:39 | -23.80143 | 133.89766 | 1792 ft | 9 kts | 300° |
| 2026-05-08 13:39 | -23.80111 | 133.89708 | 1792 ft | 9 kts | 300° |
| 2026-05-08 13:39 | -23.80079 | 133.89649 | 1793 ft | 9 kts | 301° |
| 2026-05-08 13:39 | -23.80047 | 133.89590 | 1793 ft | 9 kts | 301° |
| 2026-05-08 13:40 | -23.80014 | 133.89531 | 1795 ft | 10 kts | 301° |
| 2026-05-08 13:40 | -23.79985 | 133.89458 | 1795 ft | 9 kts | 285° |
| 2026-05-08 13:40 | -23.79992 | 133.89393 | 1798 ft | 9 kts | 248° |
| 2026-05-08 13:40 | -23.80019 | 133.89335 | 1796 ft | 8 kts | 243° |
| 2026-05-08 13:41 | -23.80041 | 133.89290 | 1797 ft | 5 kts | 234° |
| 2026-05-08 13:41 | -23.80062 | 133.89292 | 1795 ft | 5 kts | 154° |
| 2026-05-08 13:41 | -23.80221 | 133.89562 | 1792 ft | 92 kts | 121° |
| 2026-05-08 13:41 | -23.80704 | 133.90464 | 1795 ft | 178 kts | 121° |
| 2026-05-08 13:42 | -23.81390 | 133.91703 | 2373 ft | 200 kts | 121° |
| 2026-05-08 13:42 | -23.82104 | 133.93039 | 3562 ft | 199 kts | 119° |
| 2026-05-08 13:42 | -23.82792 | 133.94334 | 4710 ft | 194 kts | 118° |
| 2026-05-08 13:42 | -23.83483 | 133.95625 | 5499 ft | 199 kts | 118° |
| 2026-05-08 13:43 | -23.84103 | 133.97008 | 5939 ft | 214 kts | 107° |
| 2026-05-08 13:43 | -23.84535 | 133.98689 | 6319 ft | 242 kts | 103° |
| 2026-05-08 13:43 | -23.84940 | 134.00514 | 7134 ft | 253 kts | 102° |
| 2026-05-08 13:43 | -23.85354 | 134.02409 | 8035 ft | 260 kts | 102° |
| 2026-05-08 13:44 | -23.85782 | 134.04360 | 8961 ft | 267 kts | 102° |
| 2026-05-08 13:44 | -23.86224 | 134.06353 | 9896 ft | 273 kts | 102° |
| 2026-05-08 13:44 | -23.86683 | 134.08414 | 10606 ft | 289 kts | 102° |
| 2026-05-08 13:44 | -23.87185 | 134.10659 | 10858 ft | 321 kts | 102° |
| 2026-05-08 13:45 | -23.87742 | 134.13135 | 11179 ft | 348 kts | 102° |
| 2026-05-08 13:45 | -23.88336 | 134.15757 | 11975 ft | 361 kts | 102° |
| 2026-05-08 13:45 | -23.88942 | 134.18422 | 12958 ft | 371 kts | 102° |
| 2026-05-08 13:45 | -23.89573 | 134.21193 | 14025 ft | 380 kts | 102° |
| 2026-05-08 13:46 | -23.90219 | 134.24026 | 14973 ft | 390 kts | 102° |
| 2026-05-08 13:46 | -23.90882 | 134.26933 | 15953 ft | 398 kts | 103° |
| 2026-05-08 13:46 | -23.91555 | 134.29890 | 16931 ft | 405 kts | 103° |
| 2026-05-08 13:46 | -23.92243 | 134.32912 | 17894 ft | 414 kts | 103° |
| 2026-05-08 13:47 | -23.92944 | 134.35998 | 18799 ft | 423 kts | 103° |
| 2026-05-08 13:47 | -23.93660 | 134.39149 | 19637 ft | 430 kts | 103° |
| 2026-05-08 13:47 | -23.94385 | 134.42344 | 20527 ft | 436 kts | 103° |
| 2026-05-08 13:47 | -23.95121 | 134.45590 | 21393 ft | 443 kts | 103° |
| 2026-05-08 13:48 | -23.95867 | 134.48886 | 22231 ft | 450 kts | 103° |
| 2026-05-08 13:48 | -23.96622 | 134.52228 | 23054 ft | 457 kts | 103° |
| 2026-05-08 13:48 | -23.97390 | 134.55627 | 23868 ft | 464 kts | 103° |
| 2026-05-08 13:48 | -23.98168 | 134.59075 | 24502 ft | 472 kts | 103° |
| 2026-05-08 13:49 | -23.98961 | 134.62595 | 25063 ft | 481 kts | 103° |
| 2026-05-08 13:49 | -23.99767 | 134.66175 | 25617 ft | 490 kts | 103° |
| 2026-05-08 13:49 | -24.00588 | 134.69828 | 26181 ft | 498 kts | 103° |
| 2026-05-08 13:49 | -24.01419 | 134.73529 | 26731 ft | 506 kts | 103° |
| 2026-05-08 13:50 | -24.02264 | 134.77297 | 27258 ft | 514 kts | 103° |
| 2026-05-08 13:50 | -24.03118 | 134.81112 | 27787 ft | 521 kts | 103° |
| 2026-05-08 13:50 | -24.03987 | 134.84999 | 28286 ft | 529 kts | 103° |
| 2026-05-08 13:50 | -24.04867 | 134.88935 | 28798 ft | 536 kts | 103° |
| 2026-05-08 13:51 | -24.05757 | 134.92927 | 29289 ft | 543 kts | 103° |
| 2026-05-08 13:51 | -24.06657 | 134.96963 | 29760 ft | 550 kts | 103° |
| 2026-05-08 13:51 | -24.07568 | 135.01057 | 30218 ft | 557 kts | 103° |
| 2026-05-08 13:51 | -24.08487 | 135.05192 | 30606 ft | 563 kts | 103° |
| 2026-05-08 13:52 | -24.09418 | 135.09385 | 30979 ft | 568 kts | 103° |
| 2026-05-08 13:52 | -24.10340 | 135.13543 | 31350 ft | 572 kts | 103° |
| 2026-05-08 13:52 | -24.11294 | 135.17856 | 31715 ft | 576 kts | 103° |
| 2026-05-08 13:52 | -24.12239 | 135.22134 | 32031 ft | 580 kts | 103° |
| 2026-05-08 13:53 | -24.13190 | 135.26440 | 32334 ft | 585 kts | 103° |
| 2026-05-08 13:53 | -24.14146 | 135.30779 | 32605 ft | 588 kts | 103° |
| 2026-05-08 13:53 | -24.15096 | 135.35097 | 32869 ft | 592 kts | 103° |
| 2026-05-08 13:53 | -24.16061 | 135.39486 | 33135 ft | 595 kts | 103° |
| 2026-05-08 13:54 | -24.17029 | 135.43899 | 33380 ft | 598 kts | 102° |
| 2026-05-08 13:54 | -24.18000 | 135.48332 | 33584 ft | 601 kts | 102° |
| 2026-05-08 13:54 | -24.18977 | 135.52797 | 33779 ft | 604 kts | 102° |
| 2026-05-08 13:54 | -24.19955 | 135.57272 | 33980 ft | 606 kts | 102° |
| 2026-05-08 13:55 | -24.20938 | 135.61778 | 34209 ft | 608 kts | 102° |
| 2026-05-08 13:55 | -24.21917 | 135.66275 | 34461 ft | 608 kts | 102° |
| 2026-05-08 13:55 | -24.23877 | 135.75291 | 34946 ft | 608 kts | 102° |
| 2026-05-08 13:56 | -24.24855 | 135.79801 | 35179 ft | 609 kts | 102° |
| 2026-05-08 13:56 | -24.25832 | 135.84312 | 35410 ft | 610 kts | 102° |
| 2026-05-08 13:56 | -24.26811 | 135.88841 | 35633 ft | 610 kts | 102° |
| 2026-05-08 13:56 | -24.27787 | 135.93364 | 35855 ft | 611 kts | 102° |
| 2026-05-08 13:57 | -24.28764 | 135.97897 | 36098 ft | 611 kts | 102° |
| 2026-05-08 13:57 | -24.29738 | 136.02428 | 36322 ft | 611 kts | 102° |
| 2026-05-08 13:57 | -24.30715 | 136.06973 | 36544 ft | 612 kts | 102° |
| 2026-05-08 13:57 | -24.31690 | 136.11519 | 36765 ft | 612 kts | 102° |
| 2026-05-08 13:58 | -24.32655 | 136.16024 | 36994 ft | 613 kts | 102° |
| 2026-05-08 13:58 | -24.33636 | 136.20612 | 37219 ft | 613 kts | 102° |
| 2026-05-08 13:58 | -24.34607 | 136.25161 | 37441 ft | 613 kts | 102° |
| 2026-05-08 13:58 | -24.35577 | 136.29711 | 37637 ft | 614 kts | 102° |
| 2026-05-08 13:59 | -24.36549 | 136.34277 | 37867 ft | 614 kts | 102° |
| 2026-05-08 13:59 | -24.37521 | 136.38850 | 38084 ft | 615 kts | 102° |
| 2026-05-08 13:59 | -24.38488 | 136.43407 | 38292 ft | 615 kts | 102° |
| 2026-05-08 13:59 | -24.39456 | 136.47976 | 38508 ft | 616 kts | 102° |
| 2026-05-08 14:00 | -24.40424 | 136.52551 | 38701 ft | 616 kts | 102° |
| 2026-05-08 14:00 | -24.41392 | 136.57137 | 38909 ft | 617 kts | 102° |
| 2026-05-08 14:00 | -24.42359 | 136.61723 | 39094 ft | 617 kts | 102° |
| 2026-05-08 14:00 | -24.43322 | 136.66300 | 39255 ft | 617 kts | 102° |
| 2026-05-08 14:01 | -24.44288 | 136.70897 | 39296 ft | 618 kts | 102° |
| 2026-05-08 14:01 | -24.46202 | 136.79970 | 39322 ft | 600 kts | 103° |
| 2026-05-08 14:02 | -24.48127 | 136.88791 | 39344 ft | 600 kts | 103° |
| 2026-05-08 14:02 | -24.50089 | 136.97722 | 39339 ft | 603 kts | 103° |
| 2026-05-08 14:03 | -24.52037 | 137.06676 | 39335 ft | 604 kts | 103° |
| 2026-05-08 14:03 | -24.53977 | 137.15653 | 39330 ft | 603 kts | 103° |
| 2026-05-08 14:04 | -24.55906 | 137.24615 | 39333 ft | 603 kts | 103° |
| 2026-05-08 14:04 | -24.57830 | 137.33575 | 39329 ft | 602 kts | 103° |
| 2026-05-08 14:05 | -24.59745 | 137.42514 | 39328 ft | 601 kts | 103° |
| 2026-05-08 14:05 | -24.61653 | 137.51452 | 39325 ft | 600 kts | 103° |
| 2026-05-08 14:06 | -24.63555 | 137.60389 | 39321 ft | 600 kts | 103° |
| 2026-05-08 14:06 | -24.65449 | 137.69315 | 39325 ft | 600 kts | 103° |
| 2026-05-08 14:07 | -24.67334 | 137.78247 | 39317 ft | 600 kts | 103° |
| 2026-05-08 14:07 | -24.69211 | 137.87185 | 39317 ft | 600 kts | 103° |
| 2026-05-08 14:08 | -24.71082 | 137.96126 | 39316 ft | 600 kts | 103° |
| 2026-05-08 14:08 | -24.72951 | 138.05077 | 39320 ft | 601 kts | 103° |
| 2026-05-08 14:09 | -24.74815 | 138.14032 | 39318 ft | 601 kts | 103° |
| 2026-05-08 14:09 | -24.76663 | 138.22939 | 39316 ft | 601 kts | 103° |
| 2026-05-08 14:10 | -24.78518 | 138.31906 | 39313 ft | 601 kts | 103° |
| 2026-05-08 14:10 | -24.80370 | 138.40891 | 39314 ft | 602 kts | 103° |
| 2026-05-08 14:11 | -24.82215 | 138.49866 | 39313 ft | 602 kts | 103° |
| 2026-05-08 14:11 | -24.84055 | 138.58853 | 39309 ft | 602 kts | 103° |
| 2026-05-08 14:12 | -24.85890 | 138.67840 | 39312 ft | 602 kts | 102° |
| 2026-05-08 14:12 | -24.87722 | 138.76838 | 39306 ft | 602 kts | 102° |
| 2026-05-08 14:13 | -24.89545 | 138.85827 | 39305 ft | 601 kts | 102° |
| 2026-05-08 14:13 | -24.91364 | 138.94821 | 39306 ft | 601 kts | 102° |
| 2026-05-08 14:14 | -24.93177 | 139.03813 | 39304 ft | 601 kts | 102° |
| 2026-05-08 14:14 | -24.94983 | 139.12806 | 39309 ft | 601 kts | 102° |
| 2026-05-08 14:15 | -24.96784 | 139.21798 | 39310 ft | 601 kts | 102° |
| 2026-05-08 14:15 | -24.98581 | 139.30804 | 39303 ft | 601 kts | 102° |
| 2026-05-08 14:16 | -25.00071 | 139.38290 | 39308 ft | 601 kts | 102° |
| 2026-05-08 14:16 | -25.01857 | 139.47294 | 39304 ft | 601 kts | 102° |
| 2026-05-08 14:17 | -25.03638 | 139.56302 | 39305 ft | 601 kts | 102° |
| 2026-05-08 14:17 | -25.05413 | 139.65312 | 39308 ft | 601 kts | 102° |
| 2026-05-08 14:18 | -25.07184 | 139.74327 | 39304 ft | 601 kts | 102° |
| 2026-05-08 14:18 | -25.08947 | 139.83337 | 39300 ft | 601 kts | 102° |
| 2026-05-08 14:19 | -25.10705 | 139.92351 | 39302 ft | 601 kts | 102° |
| 2026-05-08 14:19 | -25.12459 | 140.01369 | 39298 ft | 601 kts | 102° |
| 2026-05-08 14:20 | -25.14206 | 140.10388 | 39302 ft | 601 kts | 102° |
| 2026-05-08 14:20 | -25.15950 | 140.19421 | 39299 ft | 601 kts | 102° |
| 2026-05-08 14:21 | -25.17687 | 140.28450 | 39302 ft | 602 kts | 102° |
| 2026-05-08 14:21 | -25.19420 | 140.37483 | 39298 ft | 602 kts | 102° |
| 2026-05-08 14:22 | -25.21136 | 140.46463 | 39298 ft | 602 kts | 102° |
| 2026-05-08 14:22 | -25.22869 | 140.55562 | 39300 ft | 602 kts | 102° |
| 2026-05-08 14:23 | -25.24574 | 140.64547 | 39297 ft | 602 kts | 102° |
| 2026-05-08 14:23 | -25.26283 | 140.73588 | 39295 ft | 602 kts | 102° |
| 2026-05-08 14:24 | -25.27989 | 140.82638 | 39295 ft | 602 kts | 102° |
| 2026-05-08 14:24 | -25.29690 | 140.91695 | 39292 ft | 602 kts | 102° |
| 2026-05-08 14:25 | -25.31383 | 141.00748 | 39291 ft | 602 kts | 102° |
| 2026-05-08 14:25 | -25.33073 | 141.09810 | 39289 ft | 602 kts | 101° |
| 2026-05-08 14:26 | -25.34757 | 141.18868 | 39291 ft | 602 kts | 101° |
| 2026-05-08 14:26 | -25.36435 | 141.27928 | 39290 ft | 602 kts | 101° |
| 2026-05-08 14:27 | -25.38108 | 141.36997 | 39289 ft | 602 kts | 101° |
| 2026-05-08 14:27 | -25.39776 | 141.46066 | 39290 ft | 602 kts | 101° |
| 2026-05-08 14:28 | -25.41439 | 141.55146 | 39285 ft | 602 kts | 101° |
| 2026-05-08 14:28 | -25.43094 | 141.64215 | 39292 ft | 602 kts | 101° |
| 2026-05-08 14:29 | -25.44745 | 141.73293 | 39294 ft | 602 kts | 101° |
| 2026-05-08 14:29 | -25.46391 | 141.82377 | 39286 ft | 602 kts | 101° |
| 2026-05-08 14:30 | -25.48030 | 141.91455 | 39289 ft | 602 kts | 101° |
| 2026-05-08 14:30 | -25.49665 | 142.00545 | 39293 ft | 602 kts | 101° |
| 2026-05-08 14:31 | -25.51283 | 142.09576 | 39288 ft | 602 kts | 101° |
| 2026-05-08 14:31 | -25.52907 | 142.18674 | 39292 ft | 602 kts | 101° |
| 2026-05-08 14:32 | -25.55332 | 142.32319 | 39286 ft | 602 kts | 101° |
| 2026-05-08 14:32 | -25.56943 | 142.41426 | 39288 ft | 603 kts | 101° |
| 2026-05-08 14:33 | -25.58548 | 142.50537 | 39288 ft | 603 kts | 101° |
| 2026-05-08 14:33 | -25.60149 | 142.59660 | 39289 ft | 603 kts | 101° |
| 2026-05-08 14:34 | -25.61744 | 142.68777 | 39290 ft | 603 kts | 101° |
| 2026-05-08 14:34 | -25.63333 | 142.77903 | 39284 ft | 603 kts | 100° |
| 2026-05-08 14:35 | -25.64918 | 142.87037 | 39288 ft | 603 kts | 100° |
| 2026-05-08 14:35 | -25.66497 | 142.96166 | 39287 ft | 603 kts | 100° |
| 2026-05-08 14:36 | -25.68069 | 143.05296 | 39287 ft | 603 kts | 100° |
| 2026-05-08 14:36 | -25.69637 | 143.14436 | 39288 ft | 603 kts | 100° |
| 2026-05-08 14:37 | -25.71199 | 143.23581 | 39288 ft | 604 kts | 100° |
| 2026-05-08 14:37 | -25.72756 | 143.32732 | 39285 ft | 604 kts | 100° |
| 2026-05-08 14:38 | -25.74308 | 143.41883 | 39282 ft | 604 kts | 100° |
| 2026-05-08 14:38 | -25.75854 | 143.51039 | 39287 ft | 604 kts | 100° |
| 2026-05-08 14:39 | -25.77385 | 143.60143 | 39283 ft | 604 kts | 100° |
| 2026-05-08 14:39 | -25.78920 | 143.69307 | 39286 ft | 604 kts | 99° |
| 2026-05-08 14:40 | -25.80450 | 143.78479 | 39292 ft | 605 kts | 99° |
| 2026-05-08 14:40 | -25.81974 | 143.87651 | 39295 ft | 605 kts | 99° |
| 2026-05-08 14:41 | -25.83495 | 143.96839 | 39296 ft | 605 kts | 99° |
| 2026-05-08 14:41 | -25.85011 | 144.06034 | 39286 ft | 605 kts | 99° |
| 2026-05-08 14:42 | -25.86520 | 144.15230 | 39289 ft | 605 kts | 99° |
| 2026-05-08 14:42 | -25.88024 | 144.24429 | 39289 ft | 605 kts | 99° |
| 2026-05-08 14:43 | -25.89521 | 144.33623 | 39291 ft | 606 kts | 99° |
| 2026-05-08 14:43 | -25.91012 | 144.42836 | 39298 ft | 606 kts | 99° |
| 2026-05-08 14:44 | -25.92495 | 144.52053 | 39291 ft | 606 kts | 99° |
| 2026-05-08 14:44 | -25.93973 | 144.61285 | 39292 ft | 607 kts | 99° |
| 2026-05-08 14:45 | -25.95446 | 144.70521 | 39292 ft | 607 kts | 99° |
| 2026-05-08 14:45 | -25.96914 | 144.79760 | 39291 ft | 607 kts | 99° |
| 2026-05-08 14:46 | -25.98378 | 144.89008 | 39296 ft | 608 kts | 99° |
| 2026-05-08 14:46 | -25.99836 | 144.98262 | 39295 ft | 608 kts | 99° |
| 2026-05-08 14:47 | -26.01287 | 145.07517 | 39288 ft | 608 kts | 99° |
| 2026-05-08 14:47 | -26.02735 | 145.16787 | 39291 ft | 608 kts | 99° |
| 2026-05-08 14:48 | -26.04176 | 145.26051 | 39289 ft | 608 kts | 99° |
| 2026-05-08 14:48 | -26.05613 | 145.35334 | 39290 ft | 609 kts | 98° |
| 2026-05-08 14:49 | -26.07043 | 145.44607 | 39289 ft | 609 kts | 98° |
| 2026-05-08 14:49 | -26.08468 | 145.53895 | 39286 ft | 609 kts | 98° |
| 2026-05-08 14:50 | -26.09878 | 145.63120 | 39289 ft | 609 kts | 98° |
| 2026-05-08 14:50 | -26.11301 | 145.72474 | 39290 ft | 609 kts | 98° |
| 2026-05-08 14:51 | -26.12700 | 145.81714 | 39287 ft | 610 kts | 98° |
| 2026-05-08 14:51 | -26.14103 | 145.91019 | 39286 ft | 610 kts | 98° |
| 2026-05-08 14:52 | -26.16196 | 146.04981 | 39280 ft | 610 kts | 98° |
| 2026-05-08 14:53 | -26.17584 | 146.14292 | 39280 ft | 610 kts | 98° |
| 2026-05-08 14:53 | -26.18968 | 146.23616 | 39280 ft | 610 kts | 98° |
| 2026-05-08 14:54 | -26.20345 | 146.32938 | 39278 ft | 610 kts | 98° |
| 2026-05-08 14:54 | -26.21717 | 146.42269 | 39284 ft | 611 kts | 98° |
| 2026-05-08 14:55 | -26.23084 | 146.51607 | 39283 ft | 611 kts | 98° |
| 2026-05-08 14:55 | -26.24445 | 146.60952 | 39283 ft | 612 kts | 98° |
| 2026-05-08 14:56 | -26.25803 | 146.70315 | 39281 ft | 612 kts | 98° |
| 2026-05-08 14:56 | -26.27154 | 146.79677 | 39280 ft | 612 kts | 98° |
| 2026-05-08 14:57 | -26.28498 | 146.89036 | 39281 ft | 612 kts | 98° |
| 2026-05-08 14:57 | -26.29838 | 146.98411 | 39281 ft | 612 kts | 98° |
| 2026-05-08 14:58 | -26.31171 | 147.07778 | 39286 ft | 612 kts | 98° |
| 2026-05-08 14:58 | -26.32499 | 147.17158 | 39281 ft | 613 kts | 98° |
| 2026-05-08 14:59 | -26.33821 | 147.26541 | 39285 ft | 613 kts | 98° |
| 2026-05-08 14:59 | -26.35794 | 147.40627 | 39287 ft | 613 kts | 98° |
| 2026-05-08 15:00 | -26.37102 | 147.50025 | 39279 ft | 614 kts | 98° |
| 2026-05-08 15:00 | -26.38405 | 147.59430 | 39285 ft | 614 kts | 98° |
| 2026-05-08 15:01 | -26.39703 | 147.68848 | 39281 ft | 614 kts | 98° |
| 2026-05-08 15:01 | -26.40985 | 147.78202 | 39289 ft | 614 kts | 98° |
| 2026-05-08 15:02 | -26.42271 | 147.87623 | 39292 ft | 615 kts | 98° |
| 2026-05-08 15:02 | -26.43551 | 147.97052 | 39286 ft | 615 kts | 98° |
| 2026-05-08 15:03 | -26.44826 | 148.06491 | 39283 ft | 615 kts | 97° |
| 2026-05-08 15:03 | -26.46095 | 148.15936 | 39284 ft | 615 kts | 97° |
| 2026-05-08 15:04 | -26.47359 | 148.25384 | 39285 ft | 616 kts | 97° |
| 2026-05-08 15:04 | -26.48404 | 148.33240 | 39284 ft | 616 kts | 97° |
| 2026-05-08 15:05 | -26.49657 | 148.42700 | 39275 ft | 616 kts | 97° |
| 2026-05-08 15:05 | -26.50905 | 148.52170 | 39276 ft | 616 kts | 97° |
| 2026-05-08 15:06 | -26.52144 | 148.61629 | 39276 ft | 616 kts | 97° |
| 2026-05-08 15:06 | -26.53380 | 148.71101 | 39278 ft | 616 kts | 97° |
| 2026-05-08 15:07 | -26.54706 | 148.80548 | 39272 ft | 616 kts | 102° |
| 2026-05-08 15:07 | -26.56599 | 148.89889 | 39278 ft | 616 kts | 104° |
| 2026-05-08 15:08 | -26.58586 | 148.99197 | 39271 ft | 617 kts | 104° |
| 2026-05-08 15:08 | -26.60525 | 149.08536 | 39268 ft | 617 kts | 103° |
| 2026-05-08 15:09 | -26.62419 | 149.17890 | 39275 ft | 617 kts | 103° |
| 2026-05-08 15:09 | -26.64301 | 149.27233 | 39272 ft | 617 kts | 103° |
| 2026-05-08 15:10 | -26.66180 | 149.36556 | 39258 ft | 617 kts | 103° |
| 2026-05-08 15:10 | -26.68063 | 149.45918 | 39271 ft | 617 kts | 103° |
| 2026-05-08 15:11 | -26.69937 | 149.55276 | 39262 ft | 617 kts | 103° |
| 2026-05-08 15:11 | -26.71807 | 149.64641 | 39265 ft | 617 kts | 103° |
| 2026-05-08 15:12 | -26.73673 | 149.74013 | 39266 ft | 617 kts | 103° |
| 2026-05-08 15:12 | -26.75533 | 149.83386 | 39263 ft | 617 kts | 103° |
| 2026-05-08 15:13 | -26.77386 | 149.92763 | 39264 ft | 617 kts | 103° |
| 2026-05-08 15:13 | -26.79233 | 150.02144 | 39262 ft | 617 kts | 103° |
| 2026-05-08 15:14 | -26.81072 | 150.11520 | 39254 ft | 617 kts | 103° |
| 2026-05-08 15:14 | -26.82906 | 150.20908 | 39256 ft | 617 kts | 103° |
| 2026-05-08 15:15 | -26.84733 | 150.30287 | 39251 ft | 617 kts | 103° |
| 2026-05-08 15:15 | -26.86025 | 150.39783 | 39255 ft | 617 kts | 93° |
| 2026-05-08 15:16 | -26.86044 | 150.49358 | 39251 ft | 613 kts | 83° |
| 2026-05-08 15:16 | -26.85364 | 150.58873 | 39248 ft | 614 kts | 82° |
| 2026-05-08 15:17 | -26.84664 | 150.68404 | 39247 ft | 614 kts | 82° |
| 2026-05-08 15:17 | -26.84025 | 150.77886 | 39246 ft | 615 kts | 83° |
| 2026-05-08 15:18 | -26.83408 | 150.87508 | 39241 ft | 616 kts | 83° |
| 2026-05-08 15:18 | -26.82789 | 150.97081 | 39240 ft | 616 kts | 83° |
| 2026-05-08 15:19 | -26.82160 | 151.06583 | 39240 ft | 617 kts | 82° |
| 2026-05-08 15:19 | -26.81515 | 151.16157 | 39237 ft | 617 kts | 82° |
| 2026-05-08 15:20 | -26.80862 | 151.25745 | 39232 ft | 618 kts | 82° |
| 2026-05-08 15:20 | -26.80205 | 151.35324 | 39235 ft | 618 kts | 82° |
| 2026-05-08 15:21 | -26.79543 | 151.44898 | 39226 ft | 618 kts | 82° |
| 2026-05-08 15:21 | -26.78872 | 151.54490 | 39220 ft | 618 kts | 82° |
| 2026-05-08 15:22 | -26.78195 | 151.64073 | 39230 ft | 617 kts | 82° |
| 2026-05-08 15:22 | -26.77513 | 151.73646 | 39203 ft | 617 kts | 82° |
| 2026-05-08 15:23 | -26.76823 | 151.83220 | 39213 ft | 617 kts | 82° |
| 2026-05-08 15:23 | -26.76128 | 151.92794 | 39203 ft | 617 kts | 82° |
| 2026-05-08 15:24 | -26.75425 | 152.02375 | 39201 ft | 617 kts | 82° |
| 2026-05-08 15:24 | -26.74717 | 152.11945 | 39205 ft | 617 kts | 82° |
| 2026-05-08 15:25 | -26.74003 | 152.21489 | 39201 ft | 617 kts | 82° |
| 2026-05-08 15:25 | -26.73280 | 152.31085 | 39205 ft | 617 kts | 82° |
| 2026-05-08 15:26 | -26.72557 | 152.40606 | 39617 ft | 617 kts | 82° |
| 2026-05-08 15:26 | -26.72193 | 152.45370 | 40032 ft | 613 kts | 82° |
| 2026-05-08 15:26 | -26.71831 | 152.50095 | 40470 ft | 609 kts | 82° |
| 2026-05-08 15:27 | -26.71468 | 152.54808 | 40838 ft | 606 kts | 82° |
| 2026-05-08 15:27 | -26.71104 | 152.59501 | 41112 ft | 605 kts | 82° |
| 2026-05-08 15:27 | -26.70368 | 152.68882 | 41186 ft | 607 kts | 82° |
| 2026-05-08 15:28 | -26.69629 | 152.78270 | 41171 ft | 604 kts | 82° |
| 2026-05-08 15:28 | -26.68887 | 152.87617 | 41163 ft | 603 kts | 82° |
| 2026-05-08 15:29 | -26.68140 | 152.96948 | 41156 ft | 602 kts | 82° |
| 2026-05-08 15:29 | -26.67387 | 153.06267 | 41165 ft | 602 kts | 82° |
| 2026-05-08 15:30 | -26.66627 | 153.15601 | 41156 ft | 603 kts | 82° |
| 2026-05-08 15:30 | -26.65860 | 153.24944 | 41161 ft | 604 kts | 82° |
| 2026-05-08 15:31 | -26.65086 | 153.34300 | 41163 ft | 605 kts | 81° |
| 2026-05-08 15:31 | -26.64305 | 153.43663 | 41160 ft | 606 kts | 81° |
| 2026-05-08 15:32 | -26.63516 | 153.53049 | 41158 ft | 607 kts | 81° |
| 2026-05-08 15:32 | -26.62720 | 153.62444 | 41156 ft | 607 kts | 81° |
| 2026-05-08 15:33 | -26.61918 | 153.71839 | 41155 ft | 607 kts | 81° |
| 2026-05-08 15:33 | -26.61109 | 153.81231 | 41156 ft | 607 kts | 81° |
| 2026-05-08 15:34 | -26.60294 | 153.90624 | 41154 ft | 608 kts | 81° |
| 2026-05-08 15:34 | -26.59473 | 154.00021 | 41153 ft | 607 kts | 81° |
| 2026-05-08 15:35 | -26.58651 | 154.09353 | 41156 ft | 607 kts | 81° |
| 2026-05-08 15:35 | -26.57818 | 154.18739 | 41156 ft | 607 kts | 81° |
| 2026-05-08 15:36 | -26.57115 | 154.26609 | 41154 ft | 607 kts | 81° |
| 2026-05-08 15:36 | -26.56132 | 154.37522 | 41153 ft | 608 kts | 81° |
| 2026-05-08 15:37 | -26.55280 | 154.46908 | 41157 ft | 608 kts | 81° |
| 2026-05-08 15:37 | -26.54422 | 154.56298 | 41155 ft | 608 kts | 81° |
| 2026-05-08 15:38 | -26.53558 | 154.65685 | 41152 ft | 608 kts | 81° |
| 2026-05-08 15:38 | -26.52686 | 154.75085 | 41151 ft | 608 kts | 81° |
| 2026-05-08 15:39 | -26.51809 | 154.84472 | 41151 ft | 608 kts | 81° |
| 2026-05-08 15:39 | -26.50924 | 154.93872 | 41152 ft | 609 kts | 81° |
| 2026-05-08 15:40 | -26.50040 | 155.03207 | 41151 ft | 609 kts | 81° |
| 2026-05-08 15:40 | -26.49143 | 155.12604 | 41149 ft | 609 kts | 81° |
| 2026-05-08 15:41 | -26.48239 | 155.22006 | 41151 ft | 609 kts | 81° |
| 2026-05-08 15:41 | -26.47330 | 155.31406 | 41152 ft | 609 kts | 80° |
| 2026-05-08 15:42 | -26.46415 | 155.40793 | 41153 ft | 609 kts | 80° |
| 2026-05-08 15:42 | -26.45492 | 155.50203 | 41150 ft | 610 kts | 80° |
| 2026-05-08 15:43 | -26.44563 | 155.59612 | 41148 ft | 610 kts | 80° |
| 2026-05-08 15:43 | -26.43523 | 155.69003 | 41145 ft | 607 kts | 75° |
| 2026-05-08 15:44 | -26.41468 | 155.78059 | 41151 ft | 599 kts | 65° |
| 2026-05-08 15:44 | -26.38368 | 155.86599 | 41149 ft | 592 kts | 59° |
| 2026-05-08 15:45 | -26.35104 | 155.95040 | 41141 ft | 593 kts | 59° |
| 2026-05-08 15:45 | -26.31877 | 156.03498 | 41144 ft | 594 kts | 59° |
| 2026-05-08 15:46 | -26.28704 | 156.11934 | 41144 ft | 594 kts | 60° |
| 2026-05-08 15:46 | -26.25518 | 156.20426 | 41141 ft | 594 kts | 60° |
| 2026-05-08 15:47 | -26.22320 | 156.28915 | 41144 ft | 594 kts | 60° |
| 2026-05-08 15:47 | -26.19113 | 156.37396 | 41137 ft | 595 kts | 59° |
| 2026-05-08 15:48 | -26.14285 | 156.50123 | 41132 ft | 595 kts | 59° |
| 2026-05-08 15:49 | -26.11063 | 156.58598 | 41137 ft | 595 kts | 59° |
| 2026-05-08 15:49 | -26.07835 | 156.67071 | 41146 ft | 595 kts | 59° |
| 2026-05-08 15:50 | -26.04603 | 156.75540 | 41127 ft | 595 kts | 59° |
| 2026-05-08 15:50 | -26.01362 | 156.84011 | 41138 ft | 595 kts | 59° |
| 2026-05-08 15:51 | -25.98119 | 156.92469 | 41133 ft | 595 kts | 59° |
| 2026-05-08 15:51 | -25.94871 | 157.00925 | 41132 ft | 595 kts | 59° |
| 2026-05-08 15:52 | -25.91641 | 157.09317 | 41129 ft | 595 kts | 59° |
| 2026-05-08 15:52 | -25.88385 | 157.17757 | 41128 ft | 594 kts | 59° |
| 2026-05-08 15:53 | -25.85125 | 157.26193 | 41121 ft | 594 kts | 59° |
| 2026-05-08 15:53 | -25.81860 | 157.34621 | 41124 ft | 594 kts | 59° |
| 2026-05-08 15:54 | -25.78595 | 157.43035 | 41129 ft | 594 kts | 59° |
| 2026-05-08 15:54 | -25.75319 | 157.51457 | 41126 ft | 594 kts | 59° |
| 2026-05-08 15:55 | -25.72042 | 157.59868 | 41120 ft | 594 kts | 59° |
| 2026-05-08 15:55 | -25.67114 | 157.72481 | 41117 ft | 594 kts | 59° |
| 2026-05-08 15:56 | -25.63842 | 157.80836 | 41119 ft | 595 kts | 59° |
| 2026-05-08 15:56 | -25.60545 | 157.89236 | 41118 ft | 595 kts | 59° |
| 2026-05-08 15:57 | -25.57245 | 157.97629 | 41116 ft | 595 kts | 59° |
| 2026-05-08 15:57 | -25.53936 | 158.06028 | 41116 ft | 595 kts | 59° |
| 2026-05-08 15:58 | -25.51184 | 158.13000 | 41111 ft | 594 kts | 59° |
| 2026-05-08 15:58 | -25.47869 | 158.21384 | 41113 ft | 594 kts | 59° |
| 2026-05-08 15:59 | -25.44554 | 158.29749 | 41111 ft | 594 kts | 59° |
| 2026-05-08 15:59 | -25.41235 | 158.38109 | 41110 ft | 593 kts | 59° |
| 2026-05-08 16:00 | -25.37912 | 158.46464 | 41103 ft | 593 kts | 59° |
| 2026-05-08 16:00 | -25.34589 | 158.54800 | 41109 ft | 593 kts | 59° |
| 2026-05-08 16:01 | -25.31260 | 158.63135 | 41092 ft | 592 kts | 59° |
| 2026-05-08 16:01 | -25.27934 | 158.71447 | 41097 ft | 591 kts | 59° |
| 2026-05-08 16:02 | -25.24607 | 158.79747 | 41105 ft | 590 kts | 59° |
| 2026-05-08 16:02 | -25.21280 | 158.88028 | 41099 ft | 589 kts | 59° |
| 2026-05-08 16:03 | -25.17956 | 158.96287 | 41093 ft | 589 kts | 59° |
| 2026-05-08 16:03 | -25.14648 | 159.04490 | 41096 ft | 588 kts | 59° |
| 2026-05-08 16:04 | -25.11320 | 159.12727 | 41097 ft | 587 kts | 59° |
| 2026-05-08 16:04 | -25.07990 | 159.20953 | 41096 ft | 587 kts | 59° |
| 2026-05-08 16:05 | -25.04659 | 159.29166 | 41094 ft | 586 kts | 59° |
| 2026-05-08 16:05 | -25.01325 | 159.37370 | 41089 ft | 586 kts | 59° |
| 2026-05-08 16:06 | -24.97989 | 159.45565 | 41088 ft | 585 kts | 59° |
| 2026-05-08 16:06 | -24.94653 | 159.53743 | 41087 ft | 585 kts | 59° |
| 2026-05-08 16:07 | -24.91312 | 159.61919 | 41087 ft | 584 kts | 59° |
| 2026-05-08 16:07 | -24.87973 | 159.70075 | 41083 ft | 584 kts | 59° |
| 2026-05-08 16:08 | -24.84634 | 159.78215 | 41084 ft | 583 kts | 59° |
| 2026-05-08 16:08 | -24.81295 | 159.86340 | 41074 ft | 582 kts | 59° |
| 2026-05-08 16:09 | -24.77956 | 159.94452 | 41068 ft | 582 kts | 59° |
| 2026-05-08 16:09 | -24.74613 | 160.02557 | 41069 ft | 581 kts | 59° |
| 2026-05-08 16:10 | -24.71270 | 160.10648 | 41068 ft | 580 kts | 59° |
| 2026-05-08 16:10 | -24.67957 | 160.18652 | 41060 ft | 579 kts | 59° |
| 2026-05-08 16:11 | -24.64612 | 160.26717 | 41062 ft | 579 kts | 59° |
| 2026-05-08 16:11 | -24.61272 | 160.34761 | 41062 ft | 578 kts | 59° |
| 2026-05-08 16:12 | -24.57928 | 160.42786 | 41055 ft | 578 kts | 59° |
| 2026-05-08 16:12 | -24.54570 | 160.50805 | 41052 ft | 577 kts | 59° |
| 2026-05-08 16:13 | -24.51211 | 160.58810 | 41057 ft | 577 kts | 59° |
| 2026-05-08 16:13 | -24.47850 | 160.66809 | 41047 ft | 577 kts | 59° |
| 2026-05-08 16:14 | -24.44489 | 160.74802 | 41048 ft | 577 kts | 59° |
| 2026-05-08 16:14 | -24.41147 | 160.82733 | 41048 ft | 576 kts | 59° |
| 2026-05-08 16:15 | -24.37778 | 160.90714 | 41045 ft | 576 kts | 59° |
| 2026-05-08 16:15 | -24.34408 | 160.98682 | 41044 ft | 576 kts | 59° |
| 2026-05-08 16:16 | -24.31032 | 161.06651 | 41046 ft | 576 kts | 59° |
| 2026-05-08 16:16 | -24.27656 | 161.14605 | 41042 ft | 576 kts | 59° |
| 2026-05-08 16:17 | -24.24845 | 161.21217 | 41038 ft | 576 kts | 59° |
| 2026-05-08 16:17 | -24.20891 | 161.30504 | 41040 ft | 575 kts | 59° |
| 2026-05-08 16:18 | -24.17506 | 161.38437 | 41035 ft | 575 kts | 59° |
| 2026-05-08 16:18 | -24.14118 | 161.46365 | 41035 ft | 575 kts | 59° |
| 2026-05-08 16:19 | -24.10727 | 161.54286 | 41038 ft | 574 kts | 59° |
| 2026-05-08 16:19 | -24.07330 | 161.62207 | 41035 ft | 575 kts | 59° |
| 2026-05-08 16:20 | -24.03945 | 161.70083 | 41035 ft | 576 kts | 59° |
| 2026-05-08 16:20 | -24.00530 | 161.78018 | 41033 ft | 577 kts | 59° |
| 2026-05-08 16:21 | -23.97102 | 161.85971 | 41029 ft | 578 kts | 59° |
| 2026-05-08 16:21 | -23.93666 | 161.93929 | 41029 ft | 579 kts | 59° |
| 2026-05-08 16:22 | -23.90225 | 162.01883 | 41026 ft | 579 kts | 59° |
| 2026-05-08 16:22 | -23.86776 | 162.09844 | 41023 ft | 579 kts | 59° |
| 2026-05-08 16:23 | -23.83326 | 162.17792 | 41023 ft | 579 kts | 59° |
| 2026-05-08 16:23 | -23.79872 | 162.25737 | 41023 ft | 578 kts | 59° |
| 2026-05-08 16:24 | -23.76421 | 162.33661 | 41026 ft | 578 kts | 59° |
| 2026-05-08 16:24 | -23.72964 | 162.41585 | 41013 ft | 577 kts | 59° |
| 2026-05-08 16:25 | -23.69511 | 162.49485 | 41019 ft | 577 kts | 59° |
| 2026-05-08 16:25 | -23.66079 | 162.57325 | 41021 ft | 576 kts | 59° |
| 2026-05-08 16:26 | -23.62626 | 162.65200 | 41016 ft | 575 kts | 59° |
| 2026-05-08 16:26 | -23.59171 | 162.73066 | 41026 ft | 575 kts | 59° |
| 2026-05-08 16:27 | -23.55716 | 162.80920 | 41023 ft | 574 kts | 59° |
| 2026-05-08 16:27 | -23.52257 | 162.88770 | 41010 ft | 574 kts | 59° |
| 2026-05-08 16:28 | -23.48797 | 162.96611 | 41021 ft | 574 kts | 59° |
| 2026-05-08 16:28 | -23.45512 | 163.04549 | 41018 ft | 576 kts | 63° |
| 2026-05-08 16:29 | -23.42513 | 163.12644 | 41015 ft | 577 kts | 64° |
| 2026-05-08 16:29 | -23.39545 | 163.20772 | 41013 ft | 577 kts | 64° |
| 2026-05-08 16:30 | -23.36547 | 163.28875 | 41015 ft | 577 kts | 63° |
| 2026-05-08 16:30 | -23.33520 | 163.36965 | 41015 ft | 577 kts | 63° |
| 2026-05-08 16:31 | -23.30482 | 163.45052 | 41012 ft | 577 kts | 63° |
| 2026-05-08 16:31 | -23.27465 | 163.53080 | 41012 ft | 577 kts | 63° |
| 2026-05-08 16:32 | -23.24427 | 163.61157 | 41009 ft | 577 kts | 63° |
| 2026-05-08 16:32 | -23.21384 | 163.69233 | 41009 ft | 577 kts | 63° |
| 2026-05-08 16:33 | -23.18342 | 163.77292 | 41009 ft | 576 kts | 63° |
| 2026-05-08 16:33 | -23.15292 | 163.85355 | 41009 ft | 576 kts | 63° |
| 2026-05-08 16:34 | -23.12244 | 163.93401 | 41008 ft | 576 kts | 63° |
| 2026-05-08 16:34 | -23.09194 | 164.01436 | 41010 ft | 575 kts | 63° |
| 2026-05-08 16:35 | -23.06143 | 164.09460 | 41009 ft | 575 kts | 63° |
| 2026-05-08 16:35 | -23.03093 | 164.17469 | 41007 ft | 574 kts | 63° |
| 2026-05-08 16:36 | -23.00041 | 164.25468 | 41011 ft | 573 kts | 63° |
| 2026-05-08 16:36 | -22.96990 | 164.33447 | 41007 ft | 573 kts | 63° |
| 2026-05-08 16:37 | -22.93934 | 164.41429 | 41000 ft | 572 kts | 63° |
| 2026-05-08 16:37 | -22.90881 | 164.49386 | 41001 ft | 571 kts | 63° |
| 2026-05-08 16:38 | -22.87826 | 164.57337 | 41005 ft | 571 kts | 63° |
| 2026-05-08 16:38 | -22.84770 | 164.65275 | 41003 ft | 570 kts | 63° |
| 2026-05-08 16:39 | -22.81714 | 164.73200 | 41005 ft | 570 kts | 63° |
| 2026-05-08 16:39 | -22.78656 | 164.81116 | 41000 ft | 569 kts | 63° |
| 2026-05-08 16:40 | -22.75596 | 164.89023 | 41000 ft | 569 kts | 63° |
| 2026-05-08 16:40 | -22.72533 | 164.96927 | 41001 ft | 568 kts | 63° |
| 2026-05-08 16:41 | -22.69474 | 165.04806 | 41001 ft | 568 kts | 63° |
| 2026-05-08 16:42 | -22.64898 | 165.16565 | 41002 ft | 567 kts | 63° |
| 2026-05-08 16:42 | -22.61832 | 165.24427 | 41003 ft | 567 kts | 63° |
| 2026-05-08 16:43 | -22.58765 | 165.32281 | 41001 ft | 566 kts | 63° |
| 2026-05-08 16:43 | -22.55695 | 165.40126 | 41002 ft | 566 kts | 63° |
| 2026-05-08 16:44 | -22.52624 | 165.47962 | 40998 ft | 565 kts | 63° |
| 2026-05-08 16:44 | -22.49552 | 165.55788 | 40994 ft | 565 kts | 63° |
| 2026-05-08 16:45 | -22.46478 | 165.63604 | 40999 ft | 565 kts | 63° |
| 2026-05-08 16:45 | -22.43403 | 165.71411 | 40996 ft | 564 kts | 63° |
| 2026-05-08 16:46 | -22.40329 | 165.79202 | 40997 ft | 564 kts | 63° |
| 2026-05-08 16:46 | -22.37253 | 165.86986 | 40996 ft | 563 kts | 63° |
| 2026-05-08 16:47 | -22.34172 | 165.94769 | 40992 ft | 563 kts | 63° |
| 2026-05-08 16:47 | -22.31094 | 166.02531 | 40992 ft | 562 kts | 63° |
| 2026-05-08 16:48 | -22.28013 | 166.10290 | 40992 ft | 562 kts | 63° |
| 2026-05-08 16:48 | -22.24929 | 166.18042 | 40993 ft | 561 kts | 63° |
| 2026-05-08 16:49 | -22.21846 | 166.25779 | 40994 ft | 561 kts | 63° |
| 2026-05-08 16:49 | -22.19284 | 166.32200 | 40997 ft | 560 kts | 63° |
| 2026-05-08 16:50 | -22.16199 | 166.39920 | 41002 ft | 560 kts | 63° |
| 2026-05-08 16:50 | -22.13110 | 166.47637 | 41002 ft | 560 kts | 63° |
| 2026-05-08 16:51 | -22.10023 | 166.55337 | 41016 ft | 560 kts | 63° |
| 2026-05-08 16:51 | -22.06930 | 166.63039 | 41006 ft | 559 kts | 63° |
| 2026-05-08 16:52 | -22.03834 | 166.70735 | 40999 ft | 560 kts | 63° |
| 2026-05-08 16:52 | -22.00733 | 166.78432 | 41000 ft | 559 kts | 63° |
| 2026-05-08 16:53 | -21.96088 | 166.89941 | 40999 ft | 558 kts | 63° |
| 2026-05-08 16:53 | -21.93009 | 166.97554 | 41006 ft | 558 kts | 63° |
| 2026-05-08 16:54 | -21.89909 | 167.05207 | 40987 ft | 557 kts | 63° |
| 2026-05-08 16:54 | -21.86806 | 167.12853 | 41005 ft | 557 kts | 63° |
| 2026-05-08 16:55 | -21.83701 | 167.20494 | 40992 ft | 557 kts | 63° |
| 2026-05-08 16:55 | -21.80591 | 167.28134 | 40996 ft | 557 kts | 63° |
| 2026-05-08 16:56 | -21.77480 | 167.35766 | 40998 ft | 557 kts | 63° |
| 2026-05-08 16:56 | -21.74363 | 167.43400 | 40999 ft | 557 kts | 63° |
| 2026-05-08 16:57 | -21.71243 | 167.51030 | 40996 ft | 557 kts | 63° |
| 2026-05-08 16:57 | -21.68118 | 167.58660 | 41000 ft | 557 kts | 63° |
| 2026-05-08 16:58 | -21.64992 | 167.66281 | 40999 ft | 557 kts | 63° |
| 2026-05-08 16:58 | -21.61863 | 167.73899 | 40995 ft | 557 kts | 63° |
| 2026-05-08 16:59 | -21.58731 | 167.81512 | 41000 ft | 557 kts | 63° |
| 2026-05-08 16:59 | -21.55599 | 167.89112 | 40999 ft | 556 kts | 63° |
| 2026-05-08 17:00 | -21.52488 | 167.96650 | 40996 ft | 556 kts | 63° |
| 2026-05-08 17:00 | -21.49355 | 168.04230 | 41000 ft | 555 kts | 63° |
| 2026-05-08 17:01 | -21.46220 | 168.11803 | 40998 ft | 555 kts | 63° |
| 2026-05-08 17:01 | -21.43087 | 168.19359 | 41006 ft | 554 kts | 63° |
| 2026-05-08 17:02 | -21.39953 | 168.26907 | 41009 ft | 554 kts | 63° |
| 2026-05-08 17:02 | -21.36812 | 168.34459 | 41004 ft | 554 kts | 63° |
| 2026-05-08 17:03 | -21.33676 | 168.41989 | 41006 ft | 553 kts | 63° |
| 2026-05-08 17:03 | -21.30537 | 168.49514 | 41003 ft | 553 kts | 63° |
| 2026-05-08 17:04 | -21.27396 | 168.57034 | 41002 ft | 552 kts | 63° |
| 2026-05-08 17:04 | -21.24253 | 168.64548 | 41003 ft | 552 kts | 63° |
| 2026-05-08 17:05 | -21.21112 | 168.72045 | 41011 ft | 551 kts | 63° |
| 2026-05-08 17:05 | -21.17967 | 168.79538 | 41009 ft | 551 kts | 63° |
| 2026-05-08 17:06 | -21.14822 | 168.87025 | 41009 ft | 551 kts | 63° |
| 2026-05-08 17:06 | -21.11696 | 168.94452 | 41010 ft | 550 kts | 63° |
| 2026-05-08 17:07 | -21.08550 | 169.01918 | 41005 ft | 550 kts | 63° |
| 2026-05-08 17:07 | -21.05398 | 169.09385 | 41008 ft | 550 kts | 63° |
| 2026-05-08 17:08 | -21.02249 | 169.16834 | 41014 ft | 550 kts | 63° |
| 2026-05-08 17:08 | -20.99094 | 169.24290 | 41008 ft | 549 kts | 63° |
| 2026-05-08 17:09 | -20.95939 | 169.31733 | 41010 ft | 549 kts | 63° |
| 2026-05-08 17:09 | -20.92781 | 169.39170 | 41009 ft | 549 kts | 63° |
| 2026-05-08 17:10 | -20.89622 | 169.46601 | 41009 ft | 549 kts | 63° |
| 2026-05-08 17:10 | -20.86460 | 169.54028 | 41006 ft | 549 kts | 63° |
| 2026-05-08 17:11 | -20.83295 | 169.61452 | 41011 ft | 549 kts | 63° |
| 2026-05-08 17:11 | -20.80125 | 169.68877 | 41014 ft | 549 kts | 63° |
| 2026-05-08 17:12 | -20.76954 | 169.76295 | 41006 ft | 548 kts | 63° |
| 2026-05-08 17:12 | -20.73780 | 169.83706 | 41011 ft | 548 kts | 63° |
| 2026-05-08 17:13 | -20.70606 | 169.91110 | 41011 ft | 548 kts | 63° |
| 2026-05-08 17:13 | -20.67431 | 169.98505 | 41007 ft | 548 kts | 63° |
| 2026-05-08 17:14 | -20.64250 | 170.05902 | 41019 ft | 547 kts | 63° |
| 2026-05-08 17:14 | -20.61098 | 170.13224 | 41005 ft | 547 kts | 63° |
| 2026-05-08 17:15 | -20.57920 | 170.20595 | 41002 ft | 547 kts | 63° |
| 2026-05-08 17:15 | -20.54736 | 170.27968 | 41017 ft | 546 kts | 63° |
| 2026-05-08 17:16 | -20.51560 | 170.35315 | 41014 ft | 546 kts | 63° |
| 2026-05-08 17:16 | -20.48379 | 170.42663 | 41015 ft | 545 kts | 63° |
| 2026-05-08 17:17 | -20.45199 | 170.50001 | 41012 ft | 545 kts | 63° |
| 2026-05-08 17:17 | -20.42214 | 170.57433 | 41012 ft | 545 kts | 66° |
| 2026-05-08 17:18 | -20.39425 | 170.64955 | 41012 ft | 545 kts | 66° |
| 2026-05-08 17:18 | -20.36631 | 170.72462 | 41011 ft | 545 kts | 66° |
| 2026-05-08 17:19 | -20.33789 | 170.79949 | 41011 ft | 545 kts | 66° |
| 2026-05-08 17:19 | -20.30924 | 170.87420 | 41012 ft | 545 kts | 66° |
| 2026-05-08 17:20 | -20.28057 | 170.94884 | 41009 ft | 544 kts | 66° |
| 2026-05-08 17:20 | -20.25192 | 171.02343 | 41011 ft | 544 kts | 66° |
| 2026-05-08 17:21 | -20.22327 | 171.09799 | 41011 ft | 544 kts | 66° |
| 2026-05-08 17:21 | -20.19459 | 171.17250 | 41008 ft | 544 kts | 66° |
| 2026-05-08 17:22 | -20.16590 | 171.24691 | 41008 ft | 543 kts | 66° |
| 2026-05-08 17:22 | -20.13737 | 171.32083 | 41011 ft | 543 kts | 66° |
| 2026-05-08 17:23 | -20.10866 | 171.39508 | 41011 ft | 543 kts | 66° |
| 2026-05-08 17:23 | -20.07990 | 171.46935 | 41010 ft | 543 kts | 66° |
| 2026-05-08 17:24 | -20.05114 | 171.54352 | 41007 ft | 542 kts | 66° |
| 2026-05-08 17:24 | -20.02236 | 171.61764 | 41011 ft | 542 kts | 66° |
| 2026-05-08 17:25 | -19.99354 | 171.69176 | 41009 ft | 542 kts | 66° |
| 2026-05-08 17:25 | -19.96470 | 171.76582 | 41011 ft | 542 kts | 66° |
| 2026-05-08 17:26 | -19.93583 | 171.83983 | 41007 ft | 542 kts | 66° |
| 2026-05-08 17:26 | -19.90697 | 171.91374 | 41012 ft | 541 kts | 66° |
| 2026-05-08 17:27 | -19.87809 | 171.98759 | 41011 ft | 541 kts | 66° |
| 2026-05-08 17:27 | -19.84918 | 172.06139 | 41010 ft | 541 kts | 66° |
| 2026-05-08 17:28 | -19.82029 | 172.13506 | 41013 ft | 540 kts | 66° |
| 2026-05-08 17:28 | -19.79136 | 172.20871 | 41009 ft | 540 kts | 66° |
| 2026-05-08 17:29 | -19.76243 | 172.28226 | 41008 ft | 540 kts | 66° |
| 2026-05-08 17:29 | -19.73348 | 172.35578 | 41006 ft | 539 kts | 66° |
| 2026-05-08 17:30 | -19.70453 | 172.42917 | 41008 ft | 539 kts | 66° |
| 2026-05-08 17:30 | -19.67556 | 172.50252 | 41013 ft | 539 kts | 66° |
| 2026-05-08 17:31 | -19.64657 | 172.57581 | 41003 ft | 538 kts | 66° |
| 2026-05-08 17:31 | -19.61756 | 172.64906 | 41013 ft | 538 kts | 66° |
| 2026-05-08 17:32 | -19.58855 | 172.72220 | 41009 ft | 538 kts | 66° |
| 2026-05-08 17:32 | -19.55974 | 172.79476 | 41011 ft | 538 kts | 66° |
| 2026-05-08 17:33 | -19.53050 | 172.86827 | 41010 ft | 537 kts | 66° |
| 2026-05-08 17:33 | -19.50165 | 172.94073 | 41013 ft | 537 kts | 66° |
| 2026-05-08 17:34 | -19.47259 | 173.01358 | 41012 ft | 537 kts | 66° |
| 2026-05-08 17:34 | -19.44351 | 173.08641 | 41006 ft | 536 kts | 66° |
| 2026-05-08 17:35 | -19.41445 | 173.15909 | 41008 ft | 536 kts | 65° |
| 2026-05-08 17:35 | -19.38533 | 173.23182 | 41008 ft | 536 kts | 65° |
| 2026-05-08 17:36 | -19.35623 | 173.30441 | 41009 ft | 535 kts | 65° |
| 2026-05-08 17:36 | -19.32711 | 173.37693 | 41006 ft | 535 kts | 65° |
| 2026-05-08 17:37 | -19.29798 | 173.44939 | 41006 ft | 535 kts | 65° |
| 2026-05-08 17:37 | -19.26885 | 173.52175 | 41009 ft | 534 kts | 65° |
| 2026-05-08 17:38 | -19.23970 | 173.59405 | 41006 ft | 534 kts | 65° |
| 2026-05-08 17:38 | -19.21053 | 173.66633 | 41007 ft | 534 kts | 65° |
| 2026-05-08 17:39 | -19.18629 | 173.72631 | 41008 ft | 534 kts | 65° |
| 2026-05-08 17:39 | -19.15708 | 173.79850 | 41007 ft | 534 kts | 65° |
| 2026-05-08 17:40 | -19.12314 | 173.88228 | 41007 ft | 533 kts | 65° |
| 2026-05-08 17:40 | -19.09390 | 173.95433 | 41003 ft | 533 kts | 65° |
| 2026-05-08 17:41 | -19.06937 | 174.01471 | 41005 ft | 533 kts | 65° |
| 2026-05-08 17:41 | -19.04010 | 174.08667 | 41004 ft | 533 kts | 65° |
| 2026-05-08 17:42 | -19.01080 | 174.15861 | 41007 ft | 533 kts | 65° |
| 2026-05-08 17:42 | -18.98150 | 174.23047 | 41005 ft | 533 kts | 65° |
| 2026-05-08 17:43 | -18.95235 | 174.30184 | 41009 ft | 533 kts | 65° |
| 2026-05-08 17:43 | -18.92299 | 174.37366 | 41008 ft | 532 kts | 65° |
| 2026-05-08 17:44 | -18.89361 | 174.44543 | 41007 ft | 532 kts | 65° |
| 2026-05-08 17:44 | -18.86423 | 174.51709 | 41006 ft | 532 kts | 65° |
| 2026-05-08 17:45 | -18.83482 | 174.58875 | 41006 ft | 532 kts | 65° |
| 2026-05-08 17:45 | -18.80535 | 174.66047 | 41005 ft | 532 kts | 65° |
| 2026-05-08 17:46 | -18.77589 | 174.73208 | 41006 ft | 532 kts | 65° |
| 2026-05-08 17:46 | -18.74637 | 174.80373 | 41006 ft | 532 kts | 65° |
| 2026-05-08 17:47 | -18.71687 | 174.87526 | 41003 ft | 532 kts | 65° |
| 2026-05-08 17:47 | -18.69231 | 174.93473 | 41001 ft | 532 kts | 65° |
| 2026-05-08 17:48 | -18.65778 | 175.01828 | 41002 ft | 532 kts | 65° |
| 2026-05-08 17:48 | -18.62840 | 175.08933 | 41002 ft | 532 kts | 65° |
| 2026-05-08 17:49 | -18.59887 | 175.16071 | 41000 ft | 531 kts | 65° |
| 2026-05-08 17:49 | -18.56939 | 175.23191 | 40580 ft | 531 kts | 65° |
| 2026-05-08 17:50 | -18.55455 | 175.26770 | 40112 ft | 534 kts | 65° |
| 2026-05-08 17:50 | -18.53962 | 175.30369 | 39618 ft | 538 kts | 65° |
| 2026-05-08 17:50 | -18.52460 | 175.33987 | 39128 ft | 541 kts | 65° |
| 2026-05-08 17:50 | -18.50945 | 175.37636 | 38630 ft | 544 kts | 65° |
| 2026-05-08 17:51 | -18.49423 | 175.41296 | 38056 ft | 547 kts | 65° |
| 2026-05-08 17:51 | -18.47895 | 175.44971 | 37436 ft | 550 kts | 66° |
| 2026-05-08 17:51 | -18.46356 | 175.48669 | 36796 ft | 553 kts | 66° |
| 2026-05-08 17:51 | -18.44805 | 175.52394 | 36118 ft | 556 kts | 66° |
| 2026-05-08 17:52 | -18.43245 | 175.56139 | 35434 ft | 560 kts | 66° |
| 2026-05-08 17:52 | -18.41676 | 175.59904 | 34724 ft | 563 kts | 67° |
| 2026-05-08 17:52 | -18.38504 | 175.67506 | 34184 ft | 571 kts | 67° |
| 2026-05-08 17:53 | -18.36906 | 175.71332 | 34033 ft | 570 kts | 67° |
| 2026-05-08 17:53 | -18.33718 | 175.78959 | 34007 ft | 568 kts | 67° |
| 2026-05-08 17:53 | -18.32130 | 175.82752 | 33886 ft | 563 kts | 67° |
| 2026-05-08 17:54 | -18.30558 | 175.86494 | 33262 ft | 556 kts | 67° |
| 2026-05-08 17:54 | -18.29004 | 175.90191 | 32562 ft | 549 kts | 67° |
| 2026-05-08 17:54 | -18.27470 | 175.93837 | 31895 ft | 542 kts | 67° |
| 2026-05-08 17:54 | -18.25953 | 175.97443 | 31231 ft | 535 kts | 67° |
| 2026-05-08 17:55 | -18.24454 | 176.01004 | 30519 ft | 531 kts | 67° |
| 2026-05-08 17:55 | -18.22967 | 176.04535 | 29726 ft | 526 kts | 67° |
| 2026-05-08 17:55 | -18.21486 | 176.08054 | 28715 ft | 526 kts | 67° |
| 2026-05-08 17:55 | -18.20005 | 176.11568 | 27688 ft | 524 kts | 67° |
| 2026-05-08 17:56 | -18.18547 | 176.15024 | 26672 ft | 503 kts | 68° |
| 2026-05-08 17:56 | -18.17170 | 176.18280 | 25687 ft | 474 kts | 68° |
| 2026-05-08 17:56 | -18.15863 | 176.21368 | 24744 ft | 450 kts | 68° |
| 2026-05-08 17:56 | -18.14624 | 176.24296 | 23850 ft | 429 kts | 68° |
| 2026-05-08 17:57 | -18.13435 | 176.27109 | 22840 ft | 413 kts | 68° |
| 2026-05-08 17:57 | -18.12274 | 176.29860 | 21822 ft | 411 kts | 68° |
| 2026-05-08 17:57 | -18.11127 | 176.32579 | 20832 ft | 402 kts | 68° |
| 2026-05-08 17:57 | -18.10002 | 176.35241 | 19868 ft | 394 kts | 68° |
| 2026-05-08 17:58 | -18.08901 | 176.37846 | 18955 ft | 387 kts | 67° |
| 2026-05-08 17:58 | -18.07817 | 176.40404 | 18030 ft | 379 kts | 67° |
| 2026-05-08 17:58 | -18.06755 | 176.42913 | 17046 ft | 372 kts | 67° |
| 2026-05-08 17:58 | -18.05722 | 176.45347 | 16471 ft | 356 kts | 67° |
| 2026-05-08 17:59 | -18.04737 | 176.47668 | 16025 ft | 340 kts | 67° |
| 2026-05-08 17:59 | -18.03786 | 176.49912 | 15602 ft | 337 kts | 67° |
| 2026-05-08 17:59 | -18.02828 | 176.52173 | 15195 ft | 341 kts | 67° |
| 2026-05-08 17:59 | -18.01860 | 176.54458 | 14792 ft | 344 kts | 67° |
| 2026-05-08 18:00 | -18.00883 | 176.56759 | 14380 ft | 344 kts | 66° |
| 2026-05-08 18:00 | -17.98969 | 176.61263 | 13824 ft | 336 kts | 66° |
| 2026-05-08 18:00 | -17.98020 | 176.63495 | 13511 ft | 331 kts | 66° |
| 2026-05-08 18:01 | -17.97087 | 176.65688 | 13155 ft | 328 kts | 66° |
| 2026-05-08 18:01 | -17.96155 | 176.67880 | 12702 ft | 328 kts | 66° |
| 2026-05-08 18:01 | -17.95227 | 176.70061 | 12337 ft | 326 kts | 66° |
| 2026-05-08 18:01 | -17.94306 | 176.72222 | 11969 ft | 323 kts | 66° |
| 2026-05-08 18:02 | -17.93391 | 176.74371 | 11587 ft | 322 kts | 66° |
| 2026-05-08 18:02 | -17.92791 | 176.75823 | 11313 ft | 318 kts | 70° |
| 2026-05-08 18:02 | -17.92306 | 176.78831 | 10865 ft | 313 kts | 90° |
| 2026-05-08 18:02 | -17.92287 | 176.81083 | 10654 ft | 306 kts | 91° |
| 2026-05-08 18:03 | -17.92286 | 176.83309 | 10324 ft | 305 kts | 91° |
| 2026-05-08 18:03 | -17.92285 | 176.85528 | 10010 ft | 303 kts | 91° |
| 2026-05-08 18:03 | -17.92280 | 176.87736 | 9667 ft | 302 kts | 91° |
| 2026-05-08 18:03 | -17.92270 | 176.89933 | 9321 ft | 300 kts | 91° |
| 2026-05-08 18:04 | -17.92257 | 176.92114 | 8966 ft | 299 kts | 91° |
| 2026-05-08 18:04 | -17.92242 | 176.94251 | 8536 ft | 286 kts | 90° |
| 2026-05-08 18:04 | -17.92225 | 176.96311 | 7993 ft | 278 kts | 90° |
| 2026-05-08 18:04 | -17.92207 | 176.98301 | 7528 ft | 265 kts | 90° |
| 2026-05-08 18:05 | -17.92190 | 177.00195 | 7053 ft | 256 kts | 90° |
| 2026-05-08 18:05 | -17.92173 | 177.02054 | 6421 ft | 255 kts | 90° |
| 2026-05-08 18:05 | -17.92157 | 177.03962 | 5915 ft | 265 kts | 90° |
| 2026-05-08 18:05 | -17.92139 | 177.05882 | 5688 ft | 256 kts | 90° |
| 2026-05-08 18:06 | -17.92121 | 177.07693 | 5455 ft | 241 kts | 89° |
| 2026-05-08 18:06 | -17.92105 | 177.09398 | 5277 ft | 225 kts | 89° |
| 2026-05-08 18:06 | -17.92089 | 177.11013 | 5295 ft | 221 kts | 89° |
| 2026-05-08 18:06 | -17.92072 | 177.12642 | 5313 ft | 227 kts | 89° |
| 2026-05-08 18:07 | -17.92055 | 177.14311 | 5319 ft | 230 kts | 89° |
| 2026-05-08 18:07 | -17.92038 | 177.16005 | 5099 ft | 234 kts | 89° |
| 2026-05-08 18:07 | -17.92021 | 177.17687 | 4843 ft | 225 kts | 89° |
| 2026-05-08 18:07 | -17.92005 | 177.19285 | 4608 ft | 212 kts | 89° |
| 2026-05-08 18:08 | -17.91989 | 177.20797 | 4424 ft | 207 kts | 88° |
| 2026-05-08 18:08 | -17.91973 | 177.22317 | 4189 ft | 208 kts | 89° |
| 2026-05-08 18:08 | -17.91957 | 177.23820 | 4011 ft | 202 kts | 89° |
| 2026-05-08 18:08 | -17.91942 | 177.25262 | 3892 ft | 194 kts | 89° |
| 2026-05-08 18:09 | -17.91927 | 177.26651 | 3807 ft | 189 kts | 89° |
| 2026-05-08 18:09 | -17.91913 | 177.27994 | 3745 ft | 180 kts | 89° |
| 2026-05-08 18:09 | -17.91898 | 177.29300 | 3656 ft | 176 kts | 89° |
| 2026-05-08 18:09 | -17.91885 | 177.30559 | 3587 ft | 174 kts | 89° |
| 2026-05-08 18:10 | -17.91746 | 177.31804 | 3457 ft | 172 kts | 65° |
| 2026-05-08 18:10 | -17.90905 | 177.32649 | 3311 ft | 169 kts | 31° |
| 2026-05-08 18:10 | -17.89917 | 177.33355 | 3070 ft | 173 kts | 35° |
| 2026-05-08 18:10 | -17.88946 | 177.34093 | 2835 ft | 170 kts | 36° |
| 2026-05-08 18:11 | -17.88012 | 177.34799 | 2633 ft | 161 kts | 36° |
| 2026-05-08 18:11 | -17.87123 | 177.35468 | 2402 ft | 153 kts | 36° |
| 2026-05-08 18:11 | -17.86280 | 177.36101 | 2199 ft | 144 kts | 37° |
| 2026-05-08 18:11 | -17.85455 | 177.36721 | 2042 ft | 147 kts | 36° |
| 2026-05-08 18:12 | -17.84598 | 177.37309 | 1879 ft | 148 kts | 33° |
| 2026-05-08 18:12 | -17.83723 | 177.37872 | 1770 ft | 148 kts | 33° |
| 2026-05-08 18:12 | -17.82856 | 177.38452 | 1582 ft | 148 kts | 36° |
| 2026-05-08 18:12 | -17.82025 | 177.39078 | 1371 ft | 145 kts | 39° |
| 2026-05-08 18:13 | -17.81215 | 177.39736 | 1061 ft | 148 kts | 39° |
| 2026-05-08 18:13 | -17.80420 | 177.40388 | 823 ft | 141 kts | 39° |
| 2026-05-08 18:13 | -17.79637 | 177.41009 | 643 ft | 144 kts | 38° |
| 2026-05-08 18:13 | -17.78845 | 177.41636 | 463 ft | 141 kts | 39° |
| 2026-05-08 18:14 | -17.78066 | 177.42268 | 260 ft | 140 kts | 38° |
| 2026-05-08 18:14 | -17.77298 | 177.42883 | 91 ft | 139 kts | 39° |
| 2026-05-08 18:14 | -17.76566 | 177.43482 | 45 ft | 122 kts | 38° |
| 2026-05-08 18:14 | -17.75993 | 177.43944 | 49 ft | 82 kts | 37° |
| 2026-05-08 18:15 | -17.75660 | 177.44212 | 52 ft | 35 kts | 37° |
| 2026-05-08 18:15 | -17.75520 | 177.44325 | 49 ft | 18 kts | 38° |
| 2026-05-08 18:15 | -17.75414 | 177.44410 | 46 ft | 20 kts | 37° |
| 2026-05-08 18:15 | -17.75330 | 177.44478 | 49 ft | 14 kts | 38° |
| 2026-05-08 18:16 | -17.75246 | 177.44546 | 47 ft | 16 kts | 38° |
| 2026-05-08 18:16 | -17.75161 | 177.44616 | 48 ft | 11 kts | 38° |
| 2026-05-08 18:16 | -17.75117 | 177.44679 | 49 ft | 11 kts | 77° |
| 2026-05-08 18:16 | -17.75126 | 177.44753 | 52 ft | 0 kts | 103° |
| 2026-05-08 18:26 | -17.75129 | 177.44768 | 49 ft | 5 kts | 103° |
| 2026-05-08 18:26 | -17.75141 | 177.44821 | 54 ft | 10 kts | 104° |
| 2026-05-08 18:26 | -17.75162 | 177.44897 | 49 ft | 11 kts | 114° |
| 2026-05-08 18:26 | -17.75223 | 177.44938 | 51 ft | 7 kts | 137° |
| 2026-05-08 18:27 | -17.75241 | 177.44987 | 52 ft | 6 kts | 108° |
| 2026-05-08 18:27 | -17.75244 | 177.44996 | 51 ft | 3 kts | 107° |
| 2026-05-08 18:27 | -17.75246 | 177.45004 | 55 ft | 0 kts | 108° |